createdAt,value
2023-05-02T00:00:37.818Z,98.98
2023-05-02T00:03:06.298Z,97.78
2023-05-02T00:05:36.123Z,96.80
2023-05-02T00:08:04.055Z,97.42
2023-05-02T00:10:31.942Z,98.12
2023-05-02T00:12:59.798Z,97.85
2023-05-02T00:15:28.461Z,96.94
2023-05-02T00:17:56.507Z,97.50
2023-05-02T00:20:24.575Z,97.79
2023-05-02T00:22:53.759Z,96.95
2023-05-02T00:25:21.803Z,96.45
2023-05-02T00:27:51.087Z,97.41
2023-05-02T00:30:21.129Z,96.99
2023-05-02T00:32:49.038Z,96.83
2023-05-02T00:35:17.227Z,96.84
2023-05-02T00:37:45.969Z,96.97
2023-05-02T00:40:15.856Z,96.44
2023-05-02T00:42:45.973Z,96.76
2023-05-02T00:45:13.868Z,96.04
2023-05-02T00:47:41.899Z,96.98
2023-05-02T00:50:10.362Z,97.19
2023-05-02T00:52:38.726Z,97.26
2023-05-02T00:55:08.013Z,97.72
2023-05-02T00:57:37.296Z,97.95
2023-05-02T01:00:06.933Z,98.00
2023-05-02T01:02:42.266Z,97.61
2023-05-02T01:05:16.715Z,97.61
2023-05-02T01:08:04.534Z,97.67
2023-05-02T01:10:46.381Z,98.88
2023-05-02T01:13:23.034Z,98.83
2023-05-02T01:15:52.885Z,99.05
2023-05-02T01:18:23.696Z,99.36
2023-05-02T01:21:02.403Z,98.94
2023-05-02T01:23:39.813Z,99.02
2023-05-02T01:26:16.614Z,98.50
2023-05-02T01:28:56.590Z,99.12
2023-05-02T01:31:26.312Z,98.34
2023-05-02T01:33:55.864Z,98.54
2023-05-02T01:36:27.968Z,98.57
2023-05-02T01:38:57.925Z,98.32
2023-05-02T01:41:28.438Z,97.84
2023-05-02T01:44:00.163Z,99.11
2023-05-02T01:46:32.724Z,98.55
2023-05-02T01:49:04.403Z,97.99
2023-05-02T01:51:34.742Z,98.35
2023-05-02T01:54:06.201Z,98.10
2023-05-02T01:56:36.640Z,97.41
2023-05-02T01:59:07.611Z,96.69
2023-05-02T02:01:37.707Z,96.97
2023-05-02T02:04:08.305Z,96.60
2023-05-02T02:06:36.487Z,96.21
2023-05-02T02:09:04.770Z,96.45
2023-05-02T02:11:45.014Z,96.93
2023-05-02T02:14:19.683Z,96.62
2023-05-02T02:16:48.170Z,96.68
2023-05-02T02:19:16.577Z,96.81
2023-05-02T02:21:48.165Z,96.46
2023-05-02T02:24:19.653Z,97.19
2023-05-02T02:26:47.557Z,96.29
2023-05-02T02:29:16.725Z,96.69
2023-05-02T02:31:44.714Z,97.46
2023-05-02T02:34:12.975Z,96.82
2023-05-02T02:36:47.621Z,96.20
2023-05-02T02:39:31.130Z,96.42
2023-05-02T02:42:07.243Z,96.64
2023-05-02T02:44:47.518Z,96.73
2023-05-02T02:47:24.809Z,96.46
2023-05-02T02:50:10.724Z,96.45
2023-05-02T02:52:47.081Z,96.40
2023-05-02T02:55:25.561Z,97.03
2023-05-02T02:58:00.372Z,96.26
2023-05-02T03:00:30.215Z,96.50
2023-05-02T03:02:58.755Z,96.73
2023-05-02T03:05:26.948Z,97.41
2023-05-02T03:07:54.996Z,97.19
2023-05-02T03:10:24.226Z,97.50
2023-05-02T03:12:55.561Z,97.78
2023-05-02T03:15:46.174Z,98.86
2023-05-02T03:18:14.326Z,98.59
2023-05-02T03:20:42.245Z,99.84
2023-05-02T03:23:11.275Z,98.02
2023-05-02T03:25:39.814Z,98.40
2023-05-02T03:28:12.348Z,98.02
2023-05-02T03:30:43.320Z,97.42
2023-05-02T03:33:12.041Z,98.38
2023-05-02T03:35:43.185Z,97.21
2023-05-02T03:38:12.853Z,97.99
2023-05-02T03:40:40.831Z,99.38
2023-05-02T03:43:12.551Z,98.62
2023-05-02T03:45:41.311Z,99.68
2023-05-02T03:48:11.109Z,99.63
2023-05-02T03:50:39.428Z,99.49
2023-05-02T03:53:08.377Z,98.57
2023-05-02T03:55:45.713Z,100.00
2023-05-02T03:58:20.977Z,100.00
2023-05-02T04:00:49.116Z,100.00
2023-05-02T04:03:18.678Z,99.97
2023-05-02T04:05:47.255Z,100.00
2023-05-02T04:08:17.500Z,100.00
2023-05-02T04:10:46.040Z,100.00
2023-05-02T04:13:15.168Z,100.00
2023-05-02T04:15:46.422Z,100.00
2023-05-02T04:18:18.241Z,99.79
2023-05-02T04:20:46.270Z,100.00
2023-05-02T04:23:17.726Z,100.00
2023-05-02T04:25:53.171Z,100.00
2023-05-02T04:28:22.906Z,100.00
2023-05-02T04:30:51.604Z,100.00
2023-05-02T04:33:24.105Z,100.00
2023-05-02T04:35:53.670Z,100.00
2023-05-02T04:38:23.664Z,100.00
2023-05-02T04:40:52.581Z,100.00
2023-05-02T04:43:26.235Z,100.00
2023-05-02T04:46:01.117Z,100.00
2023-05-02T04:48:35.155Z,100.00
2023-05-02T04:51:03.403Z,100.00
2023-05-02T04:53:32.226Z,100.00
2023-05-02T04:56:00.286Z,100.00
2023-05-02T04:58:28.701Z,100.00
2023-05-02T05:01:03.694Z,100.00
2023-05-02T05:03:33.210Z,100.00
2023-05-02T05:06:03.492Z,100.00
2023-05-02T05:08:31.978Z,100.00
2023-05-02T05:11:00.500Z,100.00
2023-05-02T05:13:29.075Z,100.00
2023-05-02T05:15:57.037Z,100.00
2023-05-02T05:18:29.108Z,100.00
2023-05-02T05:20:57.049Z,100.00
2023-05-02T05:23:26.334Z,100.00
2023-05-02T05:25:55.541Z,100.00
2023-05-02T05:28:23.482Z,100.00
2023-05-02T05:30:51.758Z,100.00
2023-05-02T05:33:23.213Z,100.00
2023-05-02T05:35:52.002Z,100.00
2023-05-02T05:38:20.410Z,100.00
2023-05-02T05:40:51.995Z,100.00
2023-05-02T05:43:20.232Z,100.00
2023-05-02T05:45:48.045Z,100.00
2023-05-02T05:48:16.405Z,99.62
2023-05-02T05:50:46.788Z,100.00
2023-05-02T05:53:14.882Z,100.00
2023-05-02T05:55:44.521Z,100.00
2023-05-02T05:58:14.090Z,99.13
2023-05-02T06:00:43.568Z,100.00
2023-05-02T06:03:11.684Z,99.33
2023-05-02T06:05:39.608Z,99.43
2023-05-02T06:08:08.686Z,99.73
2023-05-02T06:10:36.542Z,100.00
2023-05-02T06:13:04.993Z,98.80
2023-05-02T06:15:38.311Z,98.85
2023-05-02T06:18:07.918Z,98.62
2023-05-02T06:20:36.987Z,96.96
2023-05-02T06:23:05.324Z,97.76
2023-05-02T06:25:33.949Z,96.52
2023-05-02T06:28:01.849Z,96.07
2023-05-02T06:30:29.732Z,95.58
2023-05-02T06:32:59.454Z,95.40
2023-05-02T06:35:27.568Z,95.19
2023-05-02T06:37:55.477Z,95.07
2023-05-02T06:40:23.316Z,94.25
2023-05-02T06:42:51.234Z,95.27
2023-05-02T06:45:19.095Z,94.18
2023-05-02T06:47:47.002Z,94.22
2023-05-02T06:50:17.126Z,94.29
2023-05-02T06:52:45.027Z,93.55
2023-05-02T06:55:13.263Z,93.25
2023-05-02T06:57:41.710Z,93.80
2023-05-02T07:00:11.623Z,92.74
2023-05-02T07:02:39.521Z,93.80
2023-05-02T07:05:08.102Z,92.56
2023-05-02T07:07:37.390Z,93.00
2023-05-02T07:10:06.095Z,93.02
2023-05-02T07:12:34.014Z,93.55
2023-05-02T07:15:01.880Z,93.19
2023-05-02T07:17:30.049Z,92.01
2023-05-02T07:19:57.882Z,91.99
2023-05-02T07:22:26.172Z,91.75
2023-05-02T07:25:00.657Z,91.82
2023-05-02T07:27:28.995Z,91.86
2023-05-02T07:29:56.810Z,91.62
2023-05-02T07:32:26.511Z,91.46
2023-05-02T07:34:56.321Z,91.60
2023-05-02T07:37:24.440Z,92.07
2023-05-02T07:39:52.566Z,92.10
2023-05-02T07:42:21.819Z,90.63
2023-05-02T07:44:49.655Z,90.43
2023-05-02T07:47:17.466Z,89.97
2023-05-02T07:49:45.358Z,90.43
2023-05-02T07:52:13.276Z,90.39
2023-05-02T07:54:41.345Z,90.25
2023-05-02T07:57:09.699Z,90.54
2023-05-02T07:59:39.657Z,89.85
2023-05-02T08:02:07.890Z,89.54
2023-05-02T08:04:35.951Z,89.19
2023-05-02T08:07:04.133Z,88.11
2023-05-02T08:09:32.151Z,88.46
2023-05-02T08:11:59.987Z,88.91
2023-05-02T08:14:28.188Z,88.76
2023-05-02T08:16:57.384Z,88.21
2023-05-02T08:19:25.766Z,88.04
2023-05-02T08:21:55.122Z,87.75
2023-05-02T08:24:23.201Z,86.82
2023-05-02T08:26:51.090Z,86.66
2023-05-02T08:29:18.905Z,86.35
2023-05-02T08:31:46.835Z,87.10
2023-05-02T08:34:16.438Z,86.61
2023-05-02T08:36:44.278Z,86.33
2023-05-02T08:39:12.207Z,86.35
2023-05-02T08:41:40.224Z,87.68
2023-05-02T08:44:08.883Z,85.05
2023-05-02T08:46:37.737Z,84.40
2023-05-02T08:49:07.562Z,83.07
2023-05-02T08:51:39.338Z,84.66
2023-05-02T08:54:10.847Z,82.75
2023-05-02T08:56:39.206Z,82.34
2023-05-02T08:59:08.211Z,83.62
2023-05-02T09:01:37.209Z,82.39
2023-05-02T09:04:05.646Z,81.74
2023-05-02T09:06:33.581Z,81.96
2023-05-02T09:09:03.518Z,82.55
2023-05-02T09:11:31.552Z,82.16
2023-05-02T09:14:04.037Z,83.58
2023-05-02T09:16:40.529Z,82.35
2023-05-02T09:19:08.734Z,83.41
2023-05-02T09:21:38.163Z,82.99
2023-05-02T09:24:18.526Z,83.31
2023-05-02T09:26:58.768Z,83.30
2023-05-02T09:29:28.738Z,83.05
2023-05-02T09:31:56.977Z,81.77
2023-05-02T09:34:25.123Z,81.50
2023-05-02T09:36:54.454Z,80.46
2023-05-02T09:39:26.250Z,80.83
2023-05-02T09:41:54.889Z,78.99
2023-05-02T09:44:24.464Z,79.18
2023-05-02T09:46:53.788Z,79.00
2023-05-02T09:49:42.932Z,78.76
2023-05-02T09:52:12.140Z,76.69
2023-05-02T09:54:41.458Z,77.19
2023-05-02T09:57:11.009Z,77.26
2023-05-02T09:59:40.305Z,76.92
2023-05-02T10:02:11.117Z,77.57
2023-05-02T10:04:40.496Z,76.68
2023-05-02T10:07:10.911Z,77.47
2023-05-02T10:09:44.327Z,76.23
2023-05-02T10:12:17.016Z,76.72
2023-05-02T10:14:50.755Z,75.33
2023-05-02T10:17:28.016Z,74.28
2023-05-02T10:20:01.717Z,74.25
2023-05-02T10:22:31.062Z,72.87
2023-05-02T10:25:02.152Z,71.19
2023-05-02T10:27:31.874Z,70.00
2023-05-02T10:30:02.399Z,66.49
2023-05-02T10:32:30.749Z,68.14
2023-05-02T10:35:03.699Z,67.61
2023-05-02T10:37:33.967Z,66.67
2023-05-02T10:40:03.956Z,67.85
2023-05-02T10:42:32.632Z,68.37
2023-05-02T10:45:01.484Z,69.85
2023-05-02T10:47:30.422Z,70.80
2023-05-02T10:50:00.369Z,69.40
2023-05-02T10:52:30.669Z,69.11
2023-05-02T10:55:19.889Z,66.57
2023-05-02T10:58:24.108Z,65.67
2023-05-02T11:00:52.096Z,66.18
2023-05-02T11:03:58.300Z,64.09
2023-05-02T11:06:27.730Z,63.93
2023-05-02T11:09:31.641Z,64.63
2023-05-02T11:12:02.101Z,66.10
2023-05-02T11:14:49.774Z,66.73
2023-05-02T11:17:18.976Z,65.55
2023-05-02T11:20:29.895Z,65.76
2023-05-02T11:22:59.961Z,66.08
2023-05-02T11:25:35.978Z,66.91
2023-05-02T11:28:08.795Z,66.14
2023-05-02T11:30:41.924Z,64.78
2023-05-02T11:33:17.075Z,66.29
2023-05-02T11:35:46.734Z,65.29
2023-05-02T11:38:16.943Z,63.51
2023-05-02T11:40:59.017Z,64.06
2023-05-02T11:43:31.834Z,63.67
2023-05-02T11:46:01.730Z,63.63
2023-05-02T11:48:31.547Z,64.20
2023-05-02T11:51:03.476Z,65.15
2023-05-02T11:53:32.103Z,65.57
2023-05-02T11:56:01.442Z,65.09
2023-05-02T11:58:32.880Z,64.63
2023-05-02T12:01:13.098Z,63.04
2023-05-02T12:03:41.307Z,65.39
2023-05-02T12:06:12.210Z,64.07
2023-05-02T12:08:41.449Z,63.74
2023-05-02T12:11:10.094Z,64.12
2023-05-02T12:13:50.526Z,60.65
2023-05-02T12:16:20.741Z,61.71
2023-05-02T12:18:49.424Z,63.39
2023-05-02T12:21:18.384Z,63.24
2023-05-02T12:23:46.805Z,64.38
2023-05-02T12:26:18.508Z,61.58
2023-05-02T12:28:51.549Z,61.12
2023-05-02T12:31:20.082Z,61.46
2023-05-02T12:33:50.255Z,62.13
2023-05-02T12:36:19.232Z,62.09
2023-05-02T12:38:53.305Z,62.46
2023-05-02T12:41:32.396Z,61.83
2023-05-02T12:44:02.037Z,62.67
2023-05-02T12:46:31.348Z,61.39
2023-05-02T12:49:03.525Z,61.36
2023-05-02T12:51:33.004Z,61.45
2023-05-02T12:54:01.367Z,60.72
2023-05-02T12:56:32.538Z,60.89
2023-05-02T12:59:05.179Z,60.74
2023-05-02T13:01:34.991Z,59.21
2023-05-02T13:04:03.322Z,59.99
2023-05-02T13:06:31.793Z,59.10
2023-05-02T13:09:00.178Z,59.40
2023-05-02T13:11:28.072Z,59.97
2023-05-02T13:13:56.565Z,59.55
2023-05-02T13:16:26.196Z,57.55
2023-05-02T13:18:54.338Z,57.13
2023-05-02T13:21:22.274Z,56.15
2023-05-02T13:23:51.874Z,57.50
2023-05-02T13:26:19.914Z,58.45
2023-05-02T13:28:47.750Z,58.97
2023-05-02T13:31:15.768Z,59.07
2023-05-02T13:33:46.123Z,59.20
2023-05-02T13:36:14.391Z,57.93
2023-05-02T13:38:42.315Z,56.85
2023-05-02T13:41:10.336Z,56.33
2023-05-02T13:43:39.370Z,52.94
2023-05-02T13:46:07.417Z,54.46
2023-05-02T13:48:37.322Z,53.45
2023-05-02T13:51:06.622Z,55.09
2023-05-02T13:53:34.481Z,57.77
2023-05-02T13:56:02.377Z,57.77
2023-05-02T13:58:30.254Z,58.58
2023-05-02T14:00:58.242Z,58.47
2023-05-02T14:03:26.377Z,58.83
2023-05-02T14:05:54.387Z,58.49
2023-05-02T14:08:23.621Z,57.48
2023-05-02T14:10:51.646Z,57.30
2023-05-02T14:13:19.594Z,56.71
2023-05-02T14:15:47.479Z,56.40
2023-05-02T14:18:16.639Z,55.80
2023-05-02T14:20:44.625Z,57.90
2023-05-02T14:23:12.655Z,54.76
2023-05-02T14:25:43.093Z,54.10
2023-05-02T14:28:11.850Z,54.26
2023-05-02T14:30:41.117Z,52.88
2023-05-02T14:33:09.392Z,55.10
2023-05-02T14:35:55.557Z,56.36
2023-05-02T14:38:23.413Z,57.40
2023-05-02T14:40:52.617Z,55.50
2023-05-02T14:43:20.545Z,56.17
2023-05-02T14:45:48.417Z,56.00
2023-05-02T14:48:17.432Z,54.30
2023-05-02T14:50:45.674Z,54.78
2023-05-02T14:53:14.224Z,55.51
2023-05-02T14:55:42.265Z,54.68
2023-05-02T14:58:11.887Z,53.69
2023-05-02T15:00:40.061Z,54.36
2023-05-02T15:03:09.917Z,55.04
2023-05-02T15:05:37.956Z,55.53
2023-05-02T15:08:06.708Z,55.81
2023-05-02T15:10:38.018Z,54.42
2023-05-02T15:13:06.676Z,56.04
2023-05-02T15:15:37.177Z,55.46
2023-05-02T15:18:05.413Z,55.91
2023-05-02T15:20:33.308Z,55.37
2023-05-02T15:23:03.469Z,56.83
2023-05-02T15:25:32.178Z,56.08
2023-05-02T15:28:00.052Z,56.47
2023-05-02T15:30:28.096Z,54.83
2023-05-02T15:32:57.392Z,54.21
2023-05-02T15:35:25.865Z,53.96
2023-05-02T15:37:53.773Z,54.75
2023-05-02T15:40:21.928Z,54.79
2023-05-02T15:42:49.788Z,54.60
2023-05-02T15:45:17.901Z,54.78
2023-05-02T15:47:45.723Z,54.79
2023-05-02T15:50:15.826Z,54.11
2023-05-02T15:52:43.715Z,54.24
2023-05-02T15:55:11.788Z,54.92
2023-05-02T15:57:39.658Z,53.14
2023-05-02T16:00:11.201Z,52.60
2023-05-02T16:02:39.056Z,52.16
2023-05-02T16:05:07.430Z,52.28
2023-05-02T16:07:36.666Z,52.83
2023-05-02T16:10:05.039Z,52.06
2023-05-02T16:12:33.083Z,51.63
2023-05-02T16:15:03.146Z,51.91
2023-05-02T16:17:31.674Z,51.09
2023-05-02T16:20:00.052Z,51.82
2023-05-02T16:22:28.846Z,49.92
2023-05-02T16:24:58.100Z,50.41
2023-05-02T16:27:25.897Z,50.46
2023-05-02T16:29:53.762Z,49.92
2023-05-02T16:32:23.214Z,50.12
2023-05-02T16:34:51.200Z,49.56
2023-05-02T16:37:19.003Z,50.12
2023-05-02T16:39:47.298Z,50.77
2023-05-02T16:42:16.551Z,49.98
2023-05-02T16:44:44.800Z,46.45
2023-05-02T16:47:12.617Z,46.71
2023-05-02T16:49:40.488Z,45.38
2023-05-02T16:52:08.350Z,45.49
2023-05-02T16:54:36.195Z,45.85
2023-05-02T16:57:04.091Z,47.01
2023-05-02T16:59:33.306Z,47.20
2023-05-02T17:02:01.367Z,46.61
2023-05-02T17:04:29.629Z,46.85
2023-05-02T17:06:58.131Z,46.86
2023-05-02T17:09:26.059Z,47.00
2023-05-02T17:11:53.904Z,47.81
2023-05-02T17:14:21.921Z,48.22
2023-05-02T17:16:51.154Z,48.28
2023-05-02T17:19:18.994Z,48.45
2023-05-02T17:21:47.198Z,48.32
2023-05-02T17:24:15.285Z,48.06
2023-05-02T17:26:43.099Z,48.28
2023-05-02T17:29:11.347Z,48.70
2023-05-02T17:31:39.347Z,49.61
2023-05-02T17:34:08.621Z,50.35
2023-05-02T17:36:36.622Z,50.94
2023-05-02T17:39:05.203Z,50.91
2023-05-02T17:41:33.106Z,50.79
2023-05-02T17:44:11.004Z,51.08
2023-05-02T17:46:39.348Z,51.84
2023-05-02T17:49:08.940Z,51.95
2023-05-02T17:51:37.126Z,50.53
2023-05-02T17:54:05.525Z,50.92
2023-05-02T17:56:34.564Z,50.80
2023-05-02T17:59:02.874Z,50.27
2023-05-02T18:01:31.067Z,50.41
2023-05-02T18:03:59.996Z,50.04
2023-05-02T18:06:29.929Z,50.48
2023-05-02T18:08:58.530Z,50.97
2023-05-02T18:11:38.620Z,51.42
2023-05-02T18:14:07.197Z,51.80
2023-05-02T18:16:36.321Z,52.42
2023-05-02T18:19:04.419Z,53.11
2023-05-02T18:21:37.422Z,54.58
2023-05-02T18:24:06.823Z,54.72
2023-05-02T18:26:34.696Z,54.95
2023-05-02T18:29:02.499Z,54.92
2023-05-02T18:31:30.982Z,56.34
2023-05-02T18:33:58.936Z,55.99
2023-05-02T18:36:28.490Z,56.40
2023-05-02T18:39:00.170Z,56.55
2023-05-02T18:41:28.079Z,57.70
2023-05-02T18:43:58.012Z,57.39
2023-05-02T18:46:26.556Z,57.36
2023-05-02T18:48:54.397Z,57.22
2023-05-02T18:51:22.758Z,58.24
2023-05-02T18:53:51.471Z,58.04
2023-05-02T18:56:21.415Z,58.30
2023-05-02T18:58:49.538Z,57.69
2023-05-02T19:01:20.191Z,57.92
2023-05-02T19:03:48.558Z,58.06
2023-05-02T19:06:17.816Z,58.29
2023-05-02T19:08:46.437Z,59.02
2023-05-02T19:11:14.524Z,58.61
2023-05-02T19:13:43.725Z,58.24
2023-05-02T19:16:13.673Z,58.02
2023-05-02T19:18:43.336Z,58.35
2023-05-02T19:21:13.549Z,58.31
2023-05-02T19:23:42.858Z,59.33
2023-05-02T19:26:14.107Z,58.57
2023-05-02T19:28:44.608Z,59.11
2023-05-02T19:31:14.906Z,59.35
2023-05-02T19:33:49.964Z,59.29
2023-05-02T19:36:18.764Z,58.99
2023-05-02T19:38:49.012Z,60.35
2023-05-02T19:41:17.142Z,60.27
2023-05-02T19:43:46.868Z,61.25
2023-05-02T19:46:15.175Z,59.96
2023-05-02T19:48:43.035Z,61.55
2023-05-02T19:51:11.653Z,61.08
2023-05-02T19:53:39.724Z,60.81
2023-05-02T19:56:08.358Z,60.49
2023-05-02T19:58:36.362Z,62.06
2023-05-02T20:01:05.839Z,61.86
2023-05-02T20:03:34.828Z,61.76
2023-05-02T20:06:03.254Z,62.55
2023-05-02T20:08:31.485Z,61.86
2023-05-02T20:10:59.604Z,62.54
2023-05-02T20:13:27.539Z,62.73
2023-05-02T20:15:55.416Z,63.52
2023-05-02T20:18:24.606Z,64.03
2023-05-02T20:20:52.475Z,63.60
2023-05-02T20:23:20.612Z,64.40
2023-05-02T20:25:48.503Z,64.17
2023-05-02T20:28:16.383Z,64.63
2023-05-02T20:30:44.246Z,65.38
2023-05-02T20:33:16.239Z,65.55
2023-05-02T20:35:46.446Z,65.72
2023-05-02T20:38:17.680Z,66.94
2023-05-02T20:40:45.693Z,66.96
2023-05-02T20:43:14.367Z,66.23
2023-05-02T20:45:42.240Z,66.77
2023-05-02T20:48:10.640Z,67.27
2023-05-02T20:50:39.480Z,67.08
2023-05-02T20:53:10.372Z,67.18
2023-05-02T20:55:38.475Z,67.61
2023-05-02T20:58:06.268Z,67.82
2023-05-02T21:00:34.082Z,67.93
2023-05-02T21:03:02.002Z,68.23
2023-05-02T21:05:30.049Z,67.81
2023-05-02T21:07:57.924Z,68.33
2023-05-02T21:10:27.862Z,68.71
2023-05-02T21:12:55.682Z,68.16
2023-05-02T21:15:23.525Z,68.53
2023-05-02T21:17:52.402Z,68.60
2023-05-02T21:20:20.296Z,68.86
2023-05-02T21:22:48.130Z,68.86
2023-05-02T21:25:16.230Z,69.28
2023-05-02T21:27:45.574Z,69.42
2023-05-02T21:30:14.743Z,69.41
2023-05-02T21:32:43.594Z,69.43
2023-05-02T21:35:12.132Z,69.50
2023-05-02T21:37:40.130Z,69.62
2023-05-02T21:40:09.271Z,70.11
2023-05-02T21:42:37.105Z,69.82
2023-05-02T21:45:07.622Z,70.28
2023-05-02T21:47:35.505Z,70.43
2023-05-02T21:50:05.116Z,70.62
2023-05-02T21:52:33.047Z,71.02
2023-05-02T21:55:01.099Z,71.12
2023-05-02T21:57:28.908Z,70.66
2023-05-02T21:59:56.727Z,70.97
2023-05-02T22:02:26.049Z,70.95
2023-05-02T22:04:54.109Z,70.98
2023-05-02T22:07:21.906Z,71.00
2023-05-02T22:09:49.699Z,71.32
2023-05-02T22:12:17.522Z,71.55
2023-05-02T22:14:46.065Z,71.43
2023-05-02T22:17:14.094Z,71.38
2023-05-02T22:19:43.357Z,71.27
2023-05-02T22:22:11.198Z,71.89
2023-05-02T22:24:39.079Z,72.00
2023-05-02T22:27:07.164Z,72.41
2023-05-02T22:29:34.961Z,72.27
2023-05-02T22:32:02.822Z,72.34
2023-05-02T22:34:31.386Z,72.36
2023-05-02T22:37:00.574Z,72.24
2023-05-02T22:39:28.360Z,72.57
2023-05-02T22:41:57.148Z,72.87
2023-05-02T22:44:24.963Z,72.94
2023-05-02T22:46:52.968Z,72.96
2023-05-02T22:49:21.258Z,73.58
2023-05-02T22:51:49.235Z,73.89
2023-05-02T22:54:18.472Z,74.24
2023-05-02T22:56:46.382Z,74.23
2023-05-02T22:59:15.404Z,74.42
2023-05-02T23:01:43.213Z,75.10
2023-05-02T23:04:11.081Z,75.03
2023-05-02T23:06:38.906Z,75.00
2023-05-02T23:09:08.334Z,75.63
2023-05-02T23:11:37.464Z,76.02
2023-05-02T23:14:05.458Z,76.19
2023-05-02T23:16:33.447Z,76.63
2023-05-02T23:19:01.398Z,76.73
2023-05-02T23:21:29.300Z,77.44
2023-05-02T23:23:57.315Z,76.66
2023-05-02T23:26:25.194Z,77.24
2023-05-02T23:28:54.386Z,77.51
2023-05-02T23:31:22.312Z,78.08
2023-05-02T23:33:50.236Z,78.15
2023-05-02T23:36:18.157Z,78.09
2023-05-02T23:38:46.270Z,77.84
2023-05-02T23:41:14.201Z,78.29
2023-05-02T23:43:42.300Z,78.28
2023-05-02T23:46:11.577Z,78.53
2023-05-02T23:48:39.438Z,78.77
2023-05-02T23:51:07.347Z,78.99
2023-05-02T23:57:14.717Z,79.25
2023-05-02T23:59:42.660Z,79.07
